Pitkin, Colorado
Current Conditions -  °F | °C
As of 2:51 AM on Tuesday 21 Oct 2014 (Local Time) from KMYP Reporting Station
Scattered Clouds Scattered Clouds  
Wind Chill: 24°   Ceiling: Unl
Heat Index: 34°   Visibility: 10mi
Dew Point: 30°   Wind: 16mph
Humidity: 87%   Direction: 210°SSW
Pressure: 30.51"   Gusts: NA
Location:  38.61°N, 106.52°W
Report Text: KMYP 210851Z AUTO 21014KT 10SM SCT040 SCT046 01/M01 A3051 RMK AO2
Loading
Personal Weather Stations






























Interactive Weather Map
Tropical Storm Tracking
New forecast layout! Learn more

10-Day Weather Forecast

Advertisements
Track Severe Weather on mobile